Time;durP1;ratioP1;P1;durP2;ratioP2;P2;SDS_P1;SDS_P2;PMS_P1;PMS_P2;Temp;Humidity;BMP_temperature;BMP_pressure;BME280_temperature;BME280_humidity;BME280_pressure;Samples;Min_cycle;Max_cycle;Signal;HPM_P1;HPM_P2
2022/09/08 00:01:25;;;;;;;1.43;0.60;;;27.00;96.30;;;;;;5117432;28;20250;-95
2022/09/08 00:20:12;;;;;;;1.30;0.60;;;26.40;97.10;;;;;;5129189;28;20270;-92
2022/09/08 00:22:52;;;;;;;2.10;0.70;;;26.50;96.40;;;;;;5129287;28;20224;-93
2022/09/08 00:25:26;;;;;;;2.00;0.70;;;26.30;96.90;;;;;;5128171;28;20285;-93
2022/09/08 00:30:58;;;;;;;2.17;0.80;;;26.10;96.20;;;;;;5125770;28;20206;-93
2022/09/08 00:33:35;;;;;;;2.57;0.73;;;26.00;94.40;;;;;;5129962;28;20189;-93
2022/09/08 00:41:52;;;;;;;2.73;0.70;;;26.10;94.30;;;;;;5197785;23;20351;-91
2022/09/08 00:44:44;;;;;;;1.80;0.50;;;26.00;94.20;;;;;;5046461;28;20249;-92
2022/09/08 00:47:23;;;;;;;2.40;0.70;;;26.10;94.20;;;;;;5040075;28;20209;-91
2022/09/08 00:50:02;;;;;;;2.37;0.53;;;26.10;95.50;;;;;;5018134;28;20217;-92
2022/09/08 00:52:40;;;;;;;1.63;0.60;;;25.90;95.70;;;;;;5044574;28;20693;-91
2022/09/08 00:55:13;;;;;;;2.67;0.90;;;25.80;96.50;;;;;;5044153;28;20232;-91
2022/09/08 00:57:47;;;;;;;1.37;0.73;;;25.70;97.10;;;;;;5030265;28;20276;-91
2022/09/08 01:00:23;;;;;;;1.43;0.70;;;25.50;97.30;;;;;;5044175;28;20208;-92
2022/09/08 01:02:54;;;;;;;2.53;0.73;;;25.40;98.40;;;;;;5043946;28;20212;-90
2022/09/08 01:05:46;;;;;;;1.93;0.90;;;25.20;99.40;;;;;;5029261;28;20240;-92
2022/09/08 01:14:45;;;;;;;2.63;0.90;;;24.50;99.90;;;;;;5044078;28;20220;-92
2022/09/08 01:17:21;;;;;;;1.53;0.77;;;24.40;99.90;;;;;;5035601;28;20218;-93
2022/09/08 01:23:05;;;;;;;2.73;1.17;;;24.10;99.90;;;;;;5030982;28;20274;-92
2022/09/08 01:26:02;;;;;;;3.53;1.00;;;23.90;99.90;;;;;;5033381;28;20240;-92
2022/09/08 01:28:42;;;;;;;3.30;1.13;;;23.60;99.90;;;;;;5037375;28;20204;-92
2022/09/08 01:31:26;;;;;;;2.67;1.10;;;23.60;99.90;;;;;;5038355;28;20205;-94
2022/09/08 01:34:10;;;;;;;1.67;0.80;;;23.30;99.90;;;;;;5039904;28;20190;-93
2022/09/08 01:37:00;;;;;;;2.93;0.70;;;23.20;99.90;;;;;;5037860;28;20233;-94
2022/09/08 01:39:45;;;;;;;2.40;0.90;;;23.00;99.90;;;;;;5037015;28;20204;-93
2022/09/08 01:45:23;;;;;;;4.03;1.20;;;22.70;99.90;;;;;;5036851;28;20244;-94
2022/09/08 01:48:09;;;;;;;3.20;0.80;;;22.50;99.90;;;;;;5035799;28;20224;-93
2022/09/08 01:50:43;;;;;;;2.97;0.90;;;22.30;99.90;;;;;;5368237;23;20552;-94
2022/09/08 02:02:02;;;;;;;3.47;0.83;;;21.70;99.90;;;;;;5035455;28;20232;-93
2022/09/08 02:04:35;;;;;;;2.50;1.00;;;21.60;99.90;;;;;;5025906;28;20209;-92
2022/09/08 02:07:16;;;;;;;3.77;1.27;;;21.50;99.90;;;;;;5026934;28;20236;-94
2022/09/08 02:09:53;;;;;;;2.57;0.90;;;21.40;99.90;;;;;;5029067;28;20235;-93
2022/09/08 02:12:25;;;;;;;4.23;0.70;;;21.30;99.90;;;;;;5035023;28;20189;-93
2022/09/08 02:34:28;;;;;;;3.23;0.90;;;21.00;99.90;;;;;;6043801;22;6822443;-91
2022/09/08 02:37:05;;;;;;;3.37;1.10;;;20.30;99.90;;;;;;6302473;22;20174;-93
2022/09/08 02:43:09;;;;;;;4.53;1.23;;;20.10;99.90;;;;;;6265404;22;20279;-93
2022/09/08 02:48:27;;;;;;;4.57;1.30;;;19.80;99.90;;;;;;6272748;22;20496;-92
2022/09/08 02:51:11;;;;;;;3.50;1.50;;;19.70;99.90;;;;;;6273182;22;20198;-92
2022/09/08 02:56:29;;;;;;;3.47;1.40;;;19.40;99.90;;;;;;6270556;22;20182;-93
2022/09/08 02:59:02;;;;;;;3.73;1.20;;;19.30;99.90;;;;;;6265711;23;20187;-93
2022/09/08 03:01:46;;;;;;;5.53;1.73;;;19.20;99.90;;;;;;6265362;23;20257;-92
2022/09/08 03:04:18;;;;;;;5.80;1.70;;;19.00;99.90;;;;;;6265860;23;20259;-92
2022/09/08 03:06:51;;;;;;;2.43;1.60;;;18.90;99.90;;;;;;6258550;22;20614;-92
2022/09/08 03:09:22;;;;;;;7.07;1.57;;;18.80;99.90;;;;;;6259948;22;20179;-92
2022/09/08 03:11:56;;;;;;;3.87;1.73;;;18.70;99.90;;;;;;6270182;23;20185;-92
2022/09/08 03:14:40;;;;;;;5.23;1.50;;;18.60;99.90;;;;;;6271781;22;20231;-92
2022/09/08 03:17:28;;;;;;;5.73;1.40;;;18.50;99.90;;;;;;6246408;23;20175;-92
2022/09/08 03:20:01;;;;;;;3.70;1.47;;;18.40;99.90;;;;;;6273826;22;20174;-92
2022/09/08 03:22:38;;;;;;;4.33;1.40;;;18.40;99.90;;;;;;6273236;22;20206;-92
2022/09/08 03:25:14;;;;;;;4.63;1.80;;;18.20;99.90;;;;;;6273474;23;20171;-92
2022/09/08 03:27:49;;;;;;;6.40;1.53;;;18.20;99.90;;;;;;6274930;22;20234;-92
2022/09/08 03:30:24;;;;;;;4.37;1.40;;;18.20;99.90;;;;;;6272089;22;20182;-92
2022/09/08 03:33:00;;;;;;;4.67;1.50;;;18.10;99.90;;;;;;6272732;23;20182;-93
2022/09/08 03:35:33;;;;;;;6.83;1.60;;;18.00;99.90;;;;;;6239811;23;20235;-93
2022/09/08 03:38:37;;;;;;;9.33;1.53;;;18.00;99.90;;;;;;6259478;23;20187;-93
2022/09/08 03:41:17;;;;;;;4.07;1.47;;;17.90;99.90;;;;;;6255738;22;20175;-93
2022/09/08 03:43:50;;;;;;;2.13;1.17;;;17.80;99.90;;;;;;6250539;23;20629;-93
2022/09/08 03:46:23;;;;;;;6.27;1.17;;;17.80;99.90;;;;;;6253761;23;20179;-92
2022/09/08 03:48:54;;;;;;;5.17;1.40;;;17.70;99.90;;;;;;6252063;23;20175;-92
2022/09/08 03:51:28;;;;;;;4.37;1.23;;;17.70;99.90;;;;;;6252357;23;20239;-95
2022/09/08 03:54:46;;;;;;;4.70;1.43;;;17.70;99.90;;;;;;6256173;23;20255;-93
2022/09/08 03:57:10;;;;;;;3.53;1.43;;;17.60;99.90;;;;;;6251289;23;20176;-93
2022/09/08 03:59:41;;;;;;;7.00;1.50;;;17.50;99.90;;;;;;6253913;23;20251;-92
2022/09/08 04:02:14;;;;;;;4.73;1.53;;;17.40;99.90;;;;;;6227137;23;20179;-93
2022/09/08 04:04:46;;;;;;;4.03;1.53;;;17.30;99.90;;;;;;6254983;23;20175;-93
2022/09/08 04:07:18;;;;;;;4.10;1.60;;;17.20;99.90;;;;;;6255765;23;20183;-93
2022/09/08 04:09:50;;;;;;;4.57;1.50;;;17.20;99.90;;;;;;6272527;22;20192;-93
2022/09/08 04:12:24;;;;;;;4.27;1.43;;;17.10;99.90;;;;;;6272618;22;20190;-93
2022/09/08 04:14:56;;;;;;;3.93;1.43;;;17.10;99.90;;;;;;6273582;22;20176;-94
2022/09/08 04:17:27;;;;;;;7.93;1.47;;;17.20;99.90;;;;;;6272686;22;20418;-91
2022/09/08 04:19:58;;;;;;;4.03;1.37;;;17.10;99.90;;;;;;6254675;23;20215;-92
2022/09/08 04:25:17;;;;;;;4.40;1.27;;;17.00;99.90;;;;;;6251286;23;20250;-92
2022/09/08 04:27:50;;;;;;;2.13;1.03;;;17.00;99.90;;;;;;6251935;23;20180;-93
2022/09/08 04:30:21;;;;;;;3.43;1.30;;;17.00;99.90;;;;;;6251920;23;20244;-93
2022/09/08 04:32:54;;;;;;;7.37;1.40;;;16.90;99.90;;;;;;6250153;23;20622;-92
2022/09/08 04:35:25;;;;;;;5.50;1.60;;;16.90;99.90;;;;;;6250317;23;20176;-93
2022/09/08 04:37:56;;;;;;;6.23;1.70;;;16.90;99.90;;;;;;6250962;23;20160;-93
2022/09/08 04:40:30;;;;;;;2.70;1.50;;;16.90;99.90;;;;;;6255199;23;20182;-92
2022/09/08 04:43:03;;;;;;;4.53;1.40;;;16.80;99.90;;;;;;6249123;23;20207;-93
2022/09/08 04:45:35;;;;;;;5.67;1.40;;;16.80;99.90;;;;;;6250619;23;20184;-92
2022/09/08 04:48:06;;;;;;;4.27;1.80;;;16.80;99.90;;;;;;6252397;22;20172;-93
2022/09/08 04:50:38;;;;;;;4.77;1.80;;;16.70;99.90;;;;;;6224137;23;20175;-92
2022/09/08 04:53:09;;;;;;;6.07;1.60;;;16.70;99.90;;;;;;6250433;23;20175;-93
2022/09/08 04:55:41;;;;;;;3.20;1.30;;;16.70;99.90;;;;;;6251297;23;20637;-93
2022/09/08 04:58:14;;;;;;;3.70;1.50;;;16.60;99.90;;;;;;6254037;23;20171;-93
2022/09/08 05:00:45;;;;;;;4.17;1.33;;;16.60;99.90;;;;;;6251011;23;20178;-93
2022/09/08 05:03:17;;;;;;;4.17;1.50;;;16.50;99.90;;;;;;6249478;23;20199;-92
2022/09/08 05:05:48;;;;;;;5.43;1.70;;;16.40;99.90;;;;;;6250813;23;20207;-93
2022/09/08 05:08:23;;;;;;;6.43;2.10;;;16.30;99.90;;;;;;6233811;22;20212;-92
2022/09/08 05:10:55;;;;;;;4.87;2.00;;;16.30;99.90;;;;;;6220141;23;20177;-91
2022/09/08 05:13:29;;;;;;;7.50;2.00;;;16.20;99.90;;;;;;6219059;23;20180;-91
2022/09/08 05:16:04;;;;;;;4.43;1.70;;;16.10;99.90;;;;;;6220583;23;20203;-92
2022/09/08 05:18:36;;;;;;;6.07;2.00;;;16.10;99.90;;;;;;6220234;23;20334;-91
2022/09/08 05:21:07;;;;;;;8.50;2.30;;;16.00;99.90;;;;;;6220676;23;20173;-92
2022/09/08 05:23:39;;;;;;;5.93;2.23;;;15.90;99.90;;;;;;6217095;23;20204;-91
2022/09/08 05:26:13;;;;;;;3.23;1.33;;;15.90;99.90;;;;;;6220057;23;20176;-91
2022/09/08 05:28:47;;;;;;;5.87;2.00;;;15.80;99.90;;;;;;6219729;23;20179;-91
2022/09/08 05:31:20;;;;;;;4.00;1.67;;;15.80;99.90;;;;;;6220683;23;20172;-92
2022/09/08 05:33:54;;;;;;;6.00;1.73;;;15.70;99.90;;;;;;6221003;23;20177;-91
2022/09/08 05:36:28;;;;;;;4.83;1.90;;;15.70;99.90;;;;;;6221206;23;20176;-91
2022/09/08 05:38:59;;;;;;;5.50;1.80;;;15.60;99.90;;;;;;6223149;23;20181;-91
2022/09/08 05:41:32;;;;;;;6.27;1.63;;;15.60;99.90;;;;;;6221309;23;20177;-91
2022/09/08 05:44:05;;;;;;;4.63;1.50;;;15.50;99.90;;;;;;6220201;23;20195;-91
2022/09/08 05:46:37;;;;;;;5.33;1.63;;;15.50;99.90;;;;;;6220946;23;20180;-91
2022/09/08 05:49:08;;;;;;;4.90;1.53;;;15.40;99.90;;;;;;6219743;23;20627;-91
2022/09/08 05:51:39;;;;;;;6.80;1.60;;;15.40;99.90;;;;;;6221250;23;20176;-91
2022/09/08 05:54:10;;;;;;;5.37;1.50;;;15.40;99.90;;;;;;6222173;23;20161;-91
2022/09/08 05:56:41;;;;;;;4.03;1.37;;;15.40;99.90;;;;;;6222205;23;20176;-91
2022/09/08 05:59:14;;;;;;;6.07;1.80;;;15.40;99.90;;;;;;6220274;23;20515;-92
2022/09/08 06:01:46;;;;;;;3.53;1.57;;;15.40;99.90;;;;;;6218913;23;20177;-92
2022/09/08 06:04:18;;;;;;;4.70;1.57;;;15.30;99.90;;;;;;6220760;23;20196;-91
2022/09/08 06:06:50;;;;;;;6.93;1.57;;;15.30;99.90;;;;;;6223368;23;20232;-94
2022/09/08 06:09:21;;;;;;;5.47;1.60;;;15.30;99.90;;;;;;6251615;23;20228;-91
2022/09/08 06:11:52;;;;;;;5.80;1.60;;;15.20;99.90;;;;;;6249607;23;20210;-92
2022/09/08 06:14:26;;;;;;;6.93;1.97;;;15.10;99.90;;;;;;6250210;23;20182;-88
2022/09/08 06:16:57;;;;;;;5.73;1.70;;;15.20;99.90;;;;;;6240390;22;20549;-93
2022/09/08 06:19:35;;;;;;;5.93;1.57;;;15.20;99.90;;;;;;6220120;23;20176;-92
2022/09/08 06:22:07;;;;;;;8.33;1.80;;;15.30;99.90;;;;;;6219122;23;20177;-92
2022/09/08 06:24:38;;;;;;;8.37;1.90;;;15.20;99.90;;;;;;6219104;23;20230;-91
2022/09/08 06:27:19;;;;;;;6.77;1.80;;;15.20;99.90;;;;;;6219716;23;20203;-92
2022/09/08 06:30:14;;;;;;;9.40;2.40;;;15.20;99.90;;;;;;6219388;23;20165;-94
2022/09/08 06:35:58;;;;;;;6.13;1.63;;;15.10;99.90;;;;;;6232920;23;20177;-92
2022/09/08 06:38:39;;;;;;;7.13;2.37;;;15.00;99.90;;;;;;6230916;23;20619;-91
2022/09/08 06:41:14;;;;;;;8.33;1.90;;;15.00;99.90;;;;;;6221115;23;20629;-93
2022/09/08 06:43:50;;;;;;;4.33;1.93;;;15.00;99.90;;;;;;6226575;23;20190;-92
2022/09/08 06:46:26;;;;;;;6.73;2.00;;;14.90;99.90;;;;;;6222899;23;20259;-91
2022/09/08 06:48:58;;;;;;;7.87;2.50;;;14.90;99.90;;;;;;6222672;23;20169;-91
2022/09/08 06:51:37;;;;;;;8.50;2.40;;;14.80;99.90;;;;;;6238819;23;20164;-94
2022/09/08 06:54:34;;;;;;;6.53;1.90;;;14.80;99.90;;;;;;6239328;23;20229;-92
2022/09/08 06:57:19;;;;;;;9.33;2.47;;;14.70;99.90;;;;;;6234076;23;20177;-92
2022/09/08 07:00:10;;;;;;;8.27;2.37;;;14.70;99.90;;;;;;6223512;23;20177;-92
2022/09/08 07:03:01;;;;;;;7.07;2.50;;;14.60;99.90;;;;;;6219365;23;20243;-92
2022/09/08 07:05:53;;;;;;;9.57;2.60;;;14.60;99.90;;;;;;6219030;23;20291;-92
2022/09/08 07:08:49;;;;;;;9.53;2.43;;;14.50;99.90;;;;;;6222061;23;20327;-92
2022/09/08 07:11:33;;;;;;;5.70;2.20;;;14.50;99.90;;;;;;6221443;23;20264;-92
2022/09/08 07:14:12;;;;;;;7.43;2.10;;;14.30;99.90;;;;;;6223472;23;20176;-92
2022/09/08 07:16:47;;;;;;;8.43;2.17;;;14.30;99.90;;;;;;6224463;23;20183;-92
2022/09/08 07:19:24;;;;;;;9.27;2.23;;;14.20;99.90;;;;;;6253550;23;20218;-92
2022/09/08 07:22:22;;;;;;;12.53;2.30;;;14.20;99.90;;;;;;6252819;23;20603;-92
2022/09/08 07:24:58;;;;;;;11.20;2.40;;;14.10;99.90;;;;;;6253840;23;20199;-92
2022/09/08 07:27:30;;;;;;;10.73;2.13;;;14.00;99.90;;;;;;6255364;23;20164;-92
2022/09/08 07:30:05;;;;;;;10.07;2.30;;;13.90;99.90;;;;;;6251445;23;20202;-92
2022/09/08 07:32:38;;;;;;;8.30;2.07;;;13.90;99.90;;;;;;6252998;22;20239;-92
2022/09/08 07:35:47;;;;;;;8.87;2.40;;;14.00;99.90;;;;;;6254529;23;20709;-92
2022/09/08 07:38:26;;;;;;;9.83;2.27;;;14.00;99.90;;;;;;6255621;22;20160;-92
2022/09/08 07:40:58;;;;;;;9.90;2.30;;;14.00;99.90;;;;;;6256237;23;20235;-92
2022/09/08 07:43:29;;;;;;;9.00;1.77;;;14.00;99.90;;;;;;6250823;23;20178;-92
2022/09/08 07:46:17;;;;;;;8.20;2.00;;;14.10;99.90;;;;;;6253830;23;20611;-91
2022/09/08 07:48:59;;;;;;;10.97;2.00;;;14.10;99.90;;;;;;6253007;23;20182;-92
2022/09/08 07:51:40;;;;;;;7.53;1.97;;;14.10;99.90;;;;;;6250687;23;20254;-95
2022/09/08 07:54:25;;;;;;;8.93;1.73;;;14.20;99.90;;;;;;6250871;23;20171;-92
2022/09/08 07:57:05;;;;;;;6.83;1.60;;;14.20;99.90;;;;;;6251134;23;20172;-92
2022/09/08 08:00:02;;;;;;;6.37;1.47;;;14.20;99.90;;;;;;6251774;23;20494;-92
2022/09/08 08:03:08;;;;;;;7.23;1.33;;;14.30;99.90;;;;;;6252625;23;20676;-92
2022/09/08 08:05:46;;;;;;;7.40;1.80;;;14.30;99.90;;;;;;6251363;23;20203;-92
2022/09/08 08:08:44;;;;;;;7.23;1.57;;;14.30;99.90;;;;;;6250926;23;20194;-92
2022/09/08 08:11:23;;;;;;;11.47;2.00;;;14.20;99.90;;;;;;6251229;23;20251;-91
2022/09/08 08:14:08;;;;;;;5.57;2.07;;;14.20;99.90;;;;;;6250652;23;20634;-91
2022/09/08 08:16:52;;;;;;;6.90;1.50;;;14.10;99.90;;;;;;6250857;23;20191;-92
2022/09/08 08:19:39;;;;;;;7.03;1.70;;;14.10;99.90;;;;;;6250852;23;20198;-92
2022/09/08 08:22:16;;;;;;;7.17;1.80;;;14.00;99.90;;;;;;6250154;23;20501;-92
2022/09/08 08:25:02;;;;;;;6.87;1.77;;;14.00;99.90;;;;;;6250169;23;20198;-92
2022/09/08 08:27:45;;;;;;;6.50;1.73;;;14.00;99.90;;;;;;6251024;23;20183;-91
2022/09/08 08:30:20;;;;;;;7.70;1.70;;;13.90;99.90;;;;;;6250232;23;20490;-92
2022/09/08 08:32:58;;;;;;;7.80;1.77;;;13.80;99.90;;;;;;6249824;23;20175;-92
2022/09/08 08:35:38;;;;;;;5.33;1.60;;;13.80;99.90;;;;;;6250217;23;20171;-92
2022/09/08 08:38:18;;;;;;;9.47;1.73;;;13.80;99.90;;;;;;6250827;23;20242;-93
2022/09/08 08:41:10;;;;;;;5.60;1.40;;;13.60;99.90;;;;;;6253614;23;20178;-91
2022/09/08 08:44:06;;;;;;;7.93;1.80;;;13.70;99.90;;;;;;6247555;23;20227;-91
2022/09/08 08:46:53;;;;;;;6.73;2.23;;;13.60;99.90;;;;;;6250660;23;20223;-90
2022/09/08 08:49:57;;;;;;;9.10;2.40;;;13.60;99.90;;;;;;6250932;23;20178;-91
2022/09/08 08:52:52;;;;;;;7.87;2.17;;;13.50;99.90;;;;;;6249152;23;20179;-91
2022/09/08 08:55:41;;;;;;;5.80;1.53;;;13.50;99.90;;;;;;6243194;23;20175;-91
2022/09/08 08:58:41;;;;;;;7.00;1.70;;;13.40;99.90;;;;;;6250680;23;20186;-91
2022/09/08 09:01:27;;;;;;;4.03;1.40;;;13.30;99.90;;;;;;6251144;23;20228;-91
2022/09/08 09:04:16;;;;;;;6.07;1.77;;;13.30;99.90;;;;;;6251218;23;20552;-91
2022/09/08 09:07:04;;;;;;;8.83;1.80;;;13.30;99.90;;;;;;6250449;23;20203;-91
2022/09/08 09:10:11;;;;;;;7.57;2.27;;;13.30;99.90;;;;;;6251574;23;20182;-91
2022/09/08 09:13:10;;;;;;;7.33;1.60;;;13.40;99.90;;;;;;6223265;23;20176;-91
2022/09/08 09:16:11;;;;;;;5.77;1.30;;;13.30;99.90;;;;;;6219135;23;20182;-92
2022/09/08 09:19:10;;;;;;;9.30;1.97;;;13.30;99.90;;;;;;6250782;23;20244;-91
2022/09/08 09:21:53;;;;;;;3.63;1.07;;;13.30;99.90;;;;;;6249738;23;20187;-91
2022/09/08 09:24:55;;;;;;;5.90;1.40;;;13.30;99.90;;;;;;6252951;22;20198;-91
2022/09/08 09:27:38;;;;;;;4.47;1.70;;;13.30;99.90;;;;;;6246712;23;20218;-90
2022/09/08 09:30:23;;;;;;;5.97;1.60;;;13.30;99.90;;;;;;6251979;23;20243;-91
2022/09/08 09:33:27;;;;;;;7.37;1.53;;;13.30;99.90;;;;;;6259297;23;20152;-92
2022/09/08 09:36:36;;;;;;;6.13;1.90;;;13.30;99.90;;;;;;6272261;22;20258;-92
2022/09/08 09:39:26;;;;;;;6.87;1.73;;;13.20;99.90;;;;;;6270806;22;20186;-92
2022/09/08 09:42:22;;;;;;;5.47;1.63;;;13.20;99.90;;;;;;6270636;22;20183;-92
2022/09/08 09:45:33;;;;;;;7.97;1.73;;;13.10;99.90;;;;;;6258600;23;20168;-92
2022/09/08 09:48:34;;;;;;;5.17;1.50;;;13.10;99.90;;;;;;6250458;23;20182;-93
2022/09/08 09:51:29;;;;;;;8.27;2.00;;;13.10;99.90;;;;;;6250764;23;20182;-92
2022/09/08 09:54:21;;;;;;;8.97;1.77;;;13.10;99.90;;;;;;6250838;23;20242;-92
2022/09/08 09:57:29;;;;;;;6.53;2.10;;;13.10;99.90;;;;;;6250045;23;20181;-92
2022/09/08 10:00:25;;;;;;;6.20;1.53;;;13.10;99.90;;;;;;6250155;23;20233;-92
2022/09/08 10:03:40;;;;;;;7.23;1.47;;;13.00;99.90;;;;;;6248861;23;20176;-92
2022/09/08 10:06:46;;;;;;;6.37;1.53;;;13.00;99.90;;;;;;6250381;23;20195;-93
2022/09/08 10:10:18;;;;;;;6.30;2.00;;;13.00;99.90;;;;;;6250309;23;20184;-92
2022/09/08 10:13:33;;;;;;;5.53;1.70;;;13.00;99.90;;;;;;6241450;23;20176;-92
2022/09/08 10:16:34;;;;;;;7.67;1.80;;;12.90;99.90;;;;;;6250382;23;20250;-91
2022/09/08 10:19:34;;;;;;;6.50;1.70;;;12.90;99.90;;;;;;6250198;23;20198;-93
2022/09/08 10:22:24;;;;;;;6.53;1.57;;;12.90;99.90;;;;;;6249832;23;20176;-91
2022/09/08 10:25:27;;;;;;;6.33;1.40;;;12.90;99.90;;;;;;6250236;23;20182;-91
2022/09/08 10:28:35;;;;;;;6.80;1.53;;;12.80;99.90;;;;;;6254628;23;20167;-91
2022/09/08 10:31:38;;;;;;;6.70;1.57;;;12.80;99.90;;;;;;6249026;23;20176;-91
2022/09/08 10:34:32;;;;;;;5.73;1.87;;;12.70;99.90;;;;;;6247303;23;20199;-91
2022/09/08 10:37:09;;;;;;;7.30;1.60;;;12.70;99.90;;;;;;6249777;23;20176;-92
2022/09/08 10:40:05;;;;;;;6.80;1.70;;;12.60;99.90;;;;;;6249812;23;20559;-90
2022/09/08 10:42:49;;;;;;;5.53;1.43;;;12.70;99.90;;;;;;6248738;23;20206;-91
2022/09/08 10:45:53;;;;;;;7.07;1.67;;;12.60;99.90;;;;;;6253156;23;20206;-91
2022/09/08 10:49:12;;;;;;;4.87;1.50;;;12.50;99.90;;;;;;6255422;23;20235;-92
2022/09/08 10:52:10;;;;;;;5.33;1.60;;;12.50;99.90;;;;;;6251011;23;20205;-91
2022/09/08 10:55:27;;;;;;;5.97;1.63;;;12.50;99.90;;;;;;6252297;23;20183;-91
2022/09/08 10:58:29;;;;;;;8.57;2.10;;;12.40;99.90;;;;;;6171532;23;20192;-91
2022/09/08 11:01:21;;;;;;;6.93;1.80;;;12.40;99.90;;;;;;6180386;23;20548;-91
2022/09/08 11:04:23;;;;;;;8.17;2.27;;;12.40;99.90;;;;;;6252451;23;20907;-91
2022/09/08 11:07:12;;;;;;;8.63;1.77;;;12.30;99.90;;;;;;6266511;22;20190;-91
2022/09/08 11:09:52;;;;;;;6.23;1.87;;;12.30;99.90;;;;;;6273400;22;20156;-91
2022/09/08 11:13:03;;;;;;;6.97;1.70;;;12.30;99.90;;;;;;6272454;22;20172;-91
2022/09/08 11:16:03;;;;;;;7.93;1.77;;;12.30;99.90;;;;;;6272940;22;20198;-91
2022/09/08 11:18:53;;;;;;;8.90;1.83;;;12.30;99.90;;;;;;6270386;22;20175;-91
2022/09/08 11:21:27;;;;;;;8.73;1.73;;;12.30;99.90;;;;;;6273202;22;20214;-90
2022/09/08 11:24:16;;;;;;;5.07;1.40;;;12.30;99.90;;;;;;6271160;23;20177;-91
2022/09/08 11:26:57;;;;;;;6.20;1.63;;;12.30;99.90;;;;;;6270596;23;20204;-91
2022/09/08 11:29:35;;;;;;;6.33;1.80;;;12.30;99.90;;;;;;6271013;23;20278;-91
2022/09/08 11:32:17;;;;;;;5.53;1.90;;;12.30;99.90;;;;;;6235578;23;20547;-91
2022/09/08 11:35:16;;;;;;;8.40;1.97;;;12.30;99.90;;;;;;6256154;22;20259;-91
2022/09/08 11:38:03;;;;;;;7.27;1.80;;;12.30;99.90;;;;;;6255609;22;20163;-92
2022/09/08 11:41:06;;;;;;;5.97;1.50;;;12.30;99.90;;;;;;6253988;23;20255;-91
2022/09/08 11:43:45;;;;;;;9.77;1.90;;;12.30;99.90;;;;;;6251968;23;20248;-91
2022/09/08 11:46:31;;;;;;;6.13;1.77;;;12.30;99.90;;;;;;6253083;23;20207;-91
2022/09/08 11:49:23;;;;;;;7.10;1.53;;;12.30;99.90;;;;;;6254620;23;20173;-91
2022/09/08 11:52:46;;;;;;;9.03;2.27;;;12.30;99.90;;;;;;6251307;23;20183;-91
2022/09/08 11:55:34;;;;;;;4.67;1.60;;;12.20;99.90;;;;;;6253884;23;20179;-91
2022/09/08 11:58:18;;;;;;;7.10;1.77;;;12.20;99.90;;;;;;6251898;23;20171;-90
2022/09/08 12:01:06;;;;;;;8.33;2.50;;;12.20;99.90;;;;;;6253555;23;20235;-91
2022/09/08 12:04:16;;;;;;;9.00;2.00;;;12.20;99.90;;;;;;6251916;23;20180;-91
2022/09/08 12:07:10;;;;;;;9.93;1.77;;;12.20;99.90;;;;;;6184863;23;20302;-91
2022/09/08 12:10:29;;;;;;;5.57;2.03;;;12.10;99.90;;;;;;6258747;23;20198;-91
2022/09/08 12:13:09;;;;;;;8.13;1.87;;;12.10;99.90;;;;;;6149370;23;20234;-91
2022/09/08 12:16:11;;;;;;;6.07;1.60;;;12.10;99.90;;;;;;6150339;23;20194;-91
2022/09/08 12:19:25;;;;;;;5.53;1.80;;;12.10;99.90;;;;;;6232960;23;20183;-91
2022/09/08 12:22:22;;;;;;;4.37;1.50;;;12.10;99.90;;;;;;6247964;22;20220;-91
2022/09/08 12:25:12;;;;;;;5.77;1.90;;;12.00;99.90;;;;;;6255208;23;20175;-91
2022/09/08 12:28:29;;;;;;;7.00;2.03;;;12.00;99.90;;;;;;6252685;23;20203;-91
2022/09/08 12:31:16;;;;;;;6.73;2.30;;;12.00;99.90;;;;;;6252731;23;20182;-90
2022/09/08 12:34:13;;;;;;;8.60;2.60;;;12.00;99.90;;;;;;6250554;23;20214;-92
2022/09/08 12:36:50;;;;;;;7.80;1.70;;;12.00;99.90;;;;;;6250887;23;20258;-92
2022/09/08 12:39:40;;;;;;;4.23;1.40;;;12.00;99.90;;;;;;6255341;22;20472;-90
2022/09/08 12:42:40;;;;;;;4.40;1.80;;;12.00;99.90;;;;;;6254332;22;20164;-92
2022/09/08 12:45:35;;;;;;;10.50;2.00;;;12.00;99.90;;;;;;6247981;22;20202;-92
2022/09/08 12:48:20;;;;;;;6.17;1.90;;;12.00;99.90;;;;;;6252409;23;20653;-92
2022/09/08 12:51:01;;;;;;;4.53;1.50;;;11.90;99.90;;;;;;6254663;23;20327;-92
2022/09/08 12:54:06;;;;;;;7.17;1.80;;;11.90;99.90;;;;;;6253126;22;20168;-92
2022/09/08 12:56:50;;;;;;;5.90;1.70;;;11.90;99.90;;;;;;6250724;23;20179;-92
2022/09/08 12:59:33;;;;;;;9.07;2.20;;;11.90;99.90;;;;;;6244943;23;20172;-92
2022/09/08 13:02:36;;;;;;;8.07;1.97;;;11.90;99.90;;;;;;6249631;23;20191;-92
2022/09/08 13:05:22;;;;;;;5.37;1.60;;;11.90;99.90;;;;;;6243947;23;20527;-92
2022/09/08 13:08:05;;;;;;;7.50;1.47;;;11.80;99.90;;;;;;6249967;23;20214;-92
2022/09/08 13:10:38;;;;;;;7.33;1.90;;;11.70;99.90;;;;;;6250974;23;20172;-92
2022/09/08 13:13:36;;;;;;;5.30;1.80;;;11.80;99.90;;;;;;6252502;23;20190;-91
2022/09/08 13:16:27;;;;;;;7.33;1.90;;;11.80;99.90;;;;;;6251328;23;20175;-92
2022/09/08 13:19:13;;;;;;;6.03;1.27;;;11.70;99.90;;;;;;6248854;23;20218;-92
2022/09/08 13:22:17;;;;;;;6.87;1.80;;;11.70;99.90;;;;;;6249799;23;20182;-93
2022/09/08 13:25:00;;;;;;;8.67;1.60;;;11.70;99.90;;;;;;6253891;23;20629;-92
2022/09/08 13:27:48;;;;;;;7.47;1.93;;;11.70;99.90;;;;;;6253766;23;20203;-92
2022/09/08 13:30:22;;;;;;;3.20;1.10;;;11.60;99.90;;;;;;6252116;23;20175;-92
2022/09/08 13:33:23;;;;;;;6.53;1.47;;;11.60;99.90;;;;;;6251794;23;20179;-92
2022/09/08 13:36:15;;;;;;;4.37;1.53;;;11.60;99.90;;;;;;6215126;23;20186;-92
2022/09/08 13:38:59;;;;;;;4.47;1.43;;;11.60;99.90;;;;;;6251397;23;20630;-92
2022/09/08 13:41:45;;;;;;;3.93;1.70;;;11.50;99.90;;;;;;6251210;23;20246;-92
2022/09/08 13:44:33;;;;;;;5.13;1.60;;;11.50;99.90;;;;;;6251809;23;20172;-92
2022/09/08 13:47:49;;;;;;;9.77;2.10;;;11.60;99.90;;;;;;6251766;23;20175;-92
2022/09/08 13:50:49;;;;;;;6.17;1.80;;;11.50;99.90;;;;;;6259419;22;20226;-92
2022/09/08 13:53:50;;;;;;;6.47;1.67;;;11.50;99.90;;;;;;6256531;23;20198;-93
2022/09/08 13:56:28;;;;;;;6.20;1.50;;;11.50;99.90;;;;;;6261749;22;20207;-92
2022/09/08 13:59:12;;;;;;;4.97;1.63;;;11.50;99.90;;;;;;6262671;22;20219;-92
2022/09/08 14:01:48;;;;;;;4.60;1.40;;;11.50;99.90;;;;;;6237273;23;20606;-92
2022/09/08 14:04:26;;;;;;;5.40;1.63;;;11.50;99.90;;;;;;6258927;23;20226;-90
2022/09/08 14:07:09;;;;;;;4.20;1.60;;;11.50;99.90;;;;;;6269661;23;20179;-91
2022/09/08 14:09:42;;;;;;;5.83;1.80;;;11.50;99.90;;;;;;6271033;22;20183;-91
2022/09/08 14:12:24;;;;;;;5.63;1.63;;;11.50;99.90;;;;;;6270983;22;20202;-92
2022/09/08 14:15:21;;;;;;;4.93;1.50;;;11.50;99.90;;;;;;6271429;23;20191;-93
2022/09/08 14:18:27;;;;;;;5.80;1.93;;;11.60;99.90;;;;;;6218463;23;20214;-93
2022/09/08 14:21:08;;;;;;;4.43;1.57;;;11.60;99.90;;;;;;6235011;23;20182;-92
2022/09/08 14:23:56;;;;;;;8.43;2.07;;;11.60;99.90;;;;;;6234260;23;20180;-92
2022/09/08 14:26:50;;;;;;;6.53;1.60;;;11.60;99.90;;;;;;6233257;23;20177;-93
2022/09/08 14:29:56;;;;;;;8.57;1.50;;;11.60;99.90;;;;;;6236497;23;20203;-92
2022/09/08 14:32:57;;;;;;;6.73;1.40;;;11.70;99.90;;;;;;6211785;23;20165;-92
2022/09/08 14:35:43;;;;;;;5.50;1.50;;;11.70;99.90;;;;;;6228962;23;20168;-92
2022/09/08 14:38:41;;;;;;;6.67;1.80;;;11.70;99.90;;;;;;6240036;23;20191;-93
2022/09/08 14:46:59;;;;;;;4.77;1.30;;;11.80;99.90;;;;;;6203674;23;20185;-91
2022/09/08 14:56:30;;;;;;;4.17;1.13;;;12.10;99.90;;;;;;6207468;23;20170;-92
2022/09/08 14:59:19;;;;;;;7.63;2.00;;;12.20;99.90;;;;;;6205929;23;20188;-93
2022/09/08 15:02:08;;;;;;;3.63;1.63;;;12.30;99.90;;;;;;6208069;23;20229;-92
2022/09/08 15:04:50;;;;;;;3.93;1.43;;;12.40;99.90;;;;;;6231740;23;20165;-92
2022/09/08 15:15:44;;;;;;;4.47;1.50;;;12.90;99.90;;;;;;6271507;22;20230;-92
2022/09/08 15:18:31;;;;;;;6.23;1.63;;;13.10;99.90;;;;;;6271358;22;20187;-91
2022/09/08 15:21:22;;;;;;;6.13;1.40;;;13.20;99.90;;;;;;6268632;22;20202;-91
2022/09/08 15:23:54;;;;;;;6.20;1.53;;;13.30;99.90;;;;;;6257265;23;20172;-91
2022/09/08 15:26:53;;;;;;;7.27;1.77;;;13.40;99.90;;;;;;6253555;23;20281;-92
2022/09/08 15:29:45;;;;;;;5.07;1.67;;;13.50;99.90;;;;;;6268159;23;20234;-92
2022/09/08 15:32:48;;;;;;;8.83;1.90;;;13.70;99.90;;;;;;6259671;23;20171;-91
2022/09/08 15:35:45;;;;;;;5.80;1.40;;;13.80;99.90;;;;;;6249992;23;20250;-91
2022/09/08 15:38:34;;;;;;;2.67;1.00;;;13.90;99.90;;;;;;6254013;23;20237;-92
2022/09/08 15:41:19;;;;;;;7.73;1.30;;;14.00;99.90;;;;;;6253849;23;20180;-91
2022/09/08 15:44:07;;;;;;;2.97;1.27;;;14.10;99.90;;;;;;6254293;23;20175;-92
2022/09/08 15:46:49;;;;;;;5.37;1.60;;;14.30;99.90;;;;;;6253041;23;20246;-91
2022/09/08 15:49:31;;;;;;;3.93;1.37;;;14.40;99.90;;;;;;6252422;23;20203;-92
2022/09/08 15:52:19;;;;;;;7.20;1.70;;;14.50;99.90;;;;;;6253280;23;20561;-92
2022/09/08 15:54:59;;;;;;;5.27;1.50;;;14.60;99.90;;;;;;6253120;23;20219;-91
2022/09/08 15:57:48;;;;;;;6.80;1.50;;;14.80;99.90;;;;;;6256604;22;20171;-92